sensor_id;sensor_type;location;lat;lon;timestamp;P1;durP1;ratioP1;P2;durP2;ratioP2
15818;SDS011;8010;53.986;12.106;2023-10-19T00:00:39;4.20;;;2.73;;
15818;SDS011;8010;53.986;12.106;2023-10-19T00:03:09;6.73;;;3.70;;
15818;SDS011;8010;53.986;12.106;2023-10-19T00:05:36;5.93;;;3.57;;
15818;SDS011;8010;53.986;12.106;2023-10-19T00:08:03;6.57;;;3.50;;
15818;SDS011;8010;53.986;12.106;2023-10-19T00:10:32;5.47;;;3.77;;
15818;SDS011;8010;53.986;12.106;2023-10-19T00:13:00;5.27;;;3.70;;
15818;SDS011;8010;53.986;12.106;2023-10-19T00:15:29;4.77;;;2.70;;
15818;SDS011;8010;53.986;12.106;2023-10-19T00:18:02;5.67;;;3.07;;
15818;SDS011;8010;53.986;12.106;2023-10-19T00:20:40;6.53;;;3.57;;
15818;SDS011;8010;53.986;12.106;2023-10-19T00:23:29;7.27;;;3.60;;
15818;SDS011;8010;53.986;12.106;2023-10-19T00:25:59;5.50;;;3.27;;
15818;SDS011;8010;53.986;12.106;2023-10-19T00:28:33;7.20;;;3.73;;
15818;SDS011;8010;53.986;12.106;2023-10-19T00:31:00;6.63;;;3.67;;
15818;SDS011;8010;53.986;12.106;2023-10-19T00:33:29;4.97;;;3.33;;
15818;SDS011;8010;53.986;12.106;2023-10-19T00:35:55;6.83;;;3.80;;
15818;SDS011;8010;53.986;12.106;2023-10-19T00:38:24;5.47;;;3.70;;
15818;SDS011;8010;53.986;12.106;2023-10-19T00:40:55;6.17;;;3.70;;
15818;SDS011;8010;53.986;12.106;2023-10-19T00:43:30;5.00;;;3.47;;
15818;SDS011;8010;53.986;12.106;2023-10-19T00:46:07;7.03;;;3.67;;
15818;SDS011;8010;53.986;12.106;2023-10-19T00:48:39;6.73;;;3.40;;
15818;SDS011;8010;53.986;12.106;2023-10-19T00:51:10;9.83;;;3.70;;
15818;SDS011;8010;53.986;12.106;2023-10-19T00:53:48;7.20;;;3.83;;
15818;SDS011;8010;53.986;12.106;2023-10-19T00:56:14;6.40;;;3.80;;
15818;SDS011;8010;53.986;12.106;2023-10-19T00:58:43;4.70;;;3.30;;
15818;SDS011;8010;53.986;12.106;2023-10-19T01:01:17;8.60;;;3.60;;
15818;SDS011;8010;53.986;12.106;2023-10-19T01:03:47;4.83;;;3.57;;
15818;SDS011;8010;53.986;12.106;2023-10-19T01:06:17;9.17;;;4.17;;
15818;SDS011;8010;53.986;12.106;2023-10-19T01:08:45;5.43;;;3.53;;
15818;SDS011;8010;53.986;12.106;2023-10-19T01:11:11;5.53;;;3.30;;
15818;SDS011;8010;53.986;12.106;2023-10-19T01:13:40;6.17;;;3.70;;
15818;SDS011;8010;53.986;12.106;2023-10-19T01:16:13;7.63;;;4.50;;
15818;SDS011;8010;53.986;12.106;2023-10-19T01:18:46;6.57;;;3.93;;
15818;SDS011;8010;53.986;12.106;2023-10-19T01:21:19;5.57;;;3.90;;
15818;SDS011;8010;53.986;12.106;2023-10-19T01:23:49;5.43;;;3.87;;
15818;SDS011;8010;53.986;12.106;2023-10-19T01:26:15;6.17;;;3.90;;
15818;SDS011;8010;53.986;12.106;2023-10-19T01:28:46;8.27;;;3.50;;
15818;SDS011;8010;53.986;12.106;2023-10-19T01:31:13;5.00;;;3.57;;
15818;SDS011;8010;53.986;12.106;2023-10-19T01:33:47;6.67;;;3.90;;
15818;SDS011;8010;53.986;12.106;2023-10-19T01:36:14;6.63;;;3.27;;
15818;SDS011;8010;53.986;12.106;2023-10-19T01:38:39;7.27;;;3.50;;
15818;SDS011;8010;53.986;12.106;2023-10-19T01:41:06;8.27;;;3.60;;
15818;SDS011;8010;53.986;12.106;2023-10-19T01:43:41;6.37;;;3.73;;
15818;SDS011;8010;53.986;12.106;2023-10-19T01:46:08;9.73;;;3.70;;
15818;SDS011;8010;53.986;12.106;2023-10-19T01:48:38;5.00;;;3.20;;
15818;SDS011;8010;53.986;12.106;2023-10-19T01:51:11;7.27;;;3.70;;
15818;SDS011;8010;53.986;12.106;2023-10-19T01:53:40;6.30;;;2.90;;
15818;SDS011;8010;53.986;12.106;2023-10-19T01:56:09;7.27;;;3.40;;
15818;SDS011;8010;53.986;12.106;2023-10-19T01:58:36;4.33;;;3.00;;
15818;SDS011;8010;53.986;12.106;2023-10-19T02:01:03;5.00;;;3.40;;
15818;SDS011;8010;53.986;12.106;2023-10-19T02:03:41;7.40;;;3.50;;
15818;SDS011;8010;53.986;12.106;2023-10-19T02:06:11;5.17;;;3.70;;
15818;SDS011;8010;53.986;12.106;2023-10-19T02:08:40;6.07;;;4.27;;
15818;SDS011;8010;53.986;12.106;2023-10-19T02:11:06;6.10;;;3.43;;
15818;SDS011;8010;53.986;12.106;2023-10-19T02:13:41;5.53;;;3.80;;
15818;SDS011;8010;53.986;12.106;2023-10-19T02:16:08;6.23;;;4.07;;
15818;SDS011;8010;53.986;12.106;2023-10-19T02:18:34;6.80;;;3.83;;
15818;SDS011;8010;53.986;12.106;2023-10-19T02:21:00;5.67;;;3.77;;
15818;SDS011;8010;53.986;12.106;2023-10-19T02:23:29;6.10;;;3.67;;
15818;SDS011;8010;53.986;12.106;2023-10-19T02:25:55;7.17;;;4.43;;
15818;SDS011;8010;53.986;12.106;2023-10-19T02:28:21;7.23;;;3.77;;
15818;SDS011;8010;53.986;12.106;2023-10-19T02:30:54;5.47;;;3.27;;
15818;SDS011;8010;53.986;12.106;2023-10-19T02:33:19;8.63;;;3.87;;
15818;SDS011;8010;53.986;12.106;2023-10-19T02:35:45;8.27;;;3.60;;
15818;SDS011;8010;53.986;12.106;2023-10-19T02:38:12;6.87;;;3.43;;
15818;SDS011;8010;53.986;12.106;2023-10-19T02:40:38;6.83;;;3.60;;
15818;SDS011;8010;53.986;12.106;2023-10-19T02:43:04;5.90;;;3.60;;
15818;SDS011;8010;53.986;12.106;2023-10-19T02:45:30;6.73;;;4.23;;
15818;SDS011;8010;53.986;12.106;2023-10-19T02:47:56;5.73;;;3.67;;
15818;SDS011;8010;53.986;12.106;2023-10-19T02:50:23;7.13;;;3.50;;
15818;SDS011;8010;53.986;12.106;2023-10-19T02:52:51;6.93;;;3.37;;
15818;SDS011;8010;53.986;12.106;2023-10-19T02:55:18;5.40;;;3.67;;
15818;SDS011;8010;53.986;12.106;2023-10-19T02:57:45;5.70;;;3.63;;
15818;SDS011;8010;53.986;12.106;2023-10-19T03:00:11;5.73;;;3.37;;
15818;SDS011;8010;53.986;12.106;2023-10-19T03:02:44;5.63;;;3.27;;
15818;SDS011;8010;53.986;12.106;2023-10-19T03:05:10;9.10;;;3.87;;
15818;SDS011;8010;53.986;12.106;2023-10-19T03:07:44;7.27;;;3.83;;
15818;SDS011;8010;53.986;12.106;2023-10-19T03:10:10;5.17;;;3.17;;
15818;SDS011;8010;53.986;12.106;2023-10-19T03:12:54;6.60;;;3.30;;
15818;SDS011;8010;53.986;12.106;2023-10-19T03:15:22;5.43;;;3.17;;
15818;SDS011;8010;53.986;12.106;2023-10-19T03:17:48;5.17;;;3.10;;
15818;SDS011;8010;53.986;12.106;2023-10-19T03:20:13;4.40;;;3.30;;
15818;SDS011;8010;53.986;12.106;2023-10-19T03:22:41;4.97;;;3.50;;
15818;SDS011;8010;53.986;12.106;2023-10-19T03:25:08;5.73;;;3.27;;
15818;SDS011;8010;53.986;12.106;2023-10-19T03:27:56;4.73;;;2.97;;
15818;SDS011;8010;53.986;12.106;2023-10-19T03:30:22;6.17;;;3.53;;
15818;SDS011;8010;53.986;12.106;2023-10-19T03:32:50;4.60;;;3.07;;
15818;SDS011;8010;53.986;12.106;2023-10-19T03:35:16;5.00;;;3.43;;
15818;SDS011;8010;53.986;12.106;2023-10-19T03:37:41;4.87;;;3.17;;
15818;SDS011;8010;53.986;12.106;2023-10-19T03:40:07;4.67;;;3.07;;
15818;SDS011;8010;53.986;12.106;2023-10-19T03:42:39;4.73;;;3.40;;
15818;SDS011;8010;53.986;12.106;2023-10-19T03:45:11;6.50;;;3.73;;
15818;SDS011;8010;53.986;12.106;2023-10-19T03:47:40;4.83;;;3.20;;
15818;SDS011;8010;53.986;12.106;2023-10-19T03:50:08;7.37;;;3.40;;
15818;SDS011;8010;53.986;12.106;2023-10-19T03:52:39;5.93;;;3.07;;
15818;SDS011;8010;53.986;12.106;2023-10-19T03:55:05;6.23;;;3.60;;
15818;SDS011;8010;53.986;12.106;2023-10-19T03:57:36;6.50;;;3.47;;
15818;SDS011;8010;53.986;12.106;2023-10-19T04:00:06;7.17;;;3.50;;
15818;SDS011;8010;53.986;12.106;2023-10-19T04:02:40;6.67;;;3.10;;
15818;SDS011;8010;53.986;12.106;2023-10-19T04:05:07;7.10;;;2.87;;
15818;SDS011;8010;53.986;12.106;2023-10-19T04:07:35;5.30;;;2.93;;
15818;SDS011;8010;53.986;12.106;2023-10-19T04:10:01;7.53;;;3.00;;
15818;SDS011;8010;53.986;12.106;2023-10-19T04:12:29;5.37;;;2.90;;
15818;SDS011;8010;53.986;12.106;2023-10-19T04:15:00;5.60;;;2.57;;
15818;SDS011;8010;53.986;12.106;2023-10-19T04:17:42;4.47;;;2.83;;
15818;SDS011;8010;53.986;12.106;2023-10-19T04:20:12;4.33;;;2.37;;
15818;SDS011;8010;53.986;12.106;2023-10-19T04:22:42;6.73;;;2.90;;
15818;SDS011;8010;53.986;12.106;2023-10-19T04:25:08;4.43;;;2.50;;
15818;SDS011;8010;53.986;12.106;2023-10-19T04:27:37;3.17;;;2.40;;
15818;SDS011;8010;53.986;12.106;2023-10-19T04:30:03;4.50;;;2.50;;
15818;SDS011;8010;53.986;12.106;2023-10-19T04:32:29;5.97;;;2.93;;
15818;SDS011;8010;53.986;12.106;2023-10-19T04:34:56;5.00;;;2.70;;
15818;SDS011;8010;53.986;12.106;2023-10-19T04:37:23;5.43;;;2.70;;
15818;SDS011;8010;53.986;12.106;2023-10-19T04:39:49;3.93;;;2.47;;
15818;SDS011;8010;53.986;12.106;2023-10-19T04:42:15;4.67;;;2.23;;
15818;SDS011;8010;53.986;12.106;2023-10-19T04:44:41;4.60;;;2.87;;
15818;SDS011;8010;53.986;12.106;2023-10-19T04:47:06;3.63;;;2.50;;
15818;SDS011;8010;53.986;12.106;2023-10-19T04:49:32;8.00;;;2.43;;
15818;SDS011;8010;53.986;12.106;2023-10-19T04:51:57;5.70;;;2.30;;
15818;SDS011;8010;53.986;12.106;2023-10-19T04:54:23;5.47;;;2.70;;
15818;SDS011;8010;53.986;12.106;2023-10-19T04:56:48;8.20;;;3.17;;
15818;SDS011;8010;53.986;12.106;2023-10-19T04:59:15;7.10;;;2.50;;
15818;SDS011;8010;53.986;12.106;2023-10-19T05:01:41;3.07;;;2.40;;
15818;SDS011;8010;53.986;12.106;2023-10-19T05:04:06;3.53;;;2.30;;
15818;SDS011;8010;53.986;12.106;2023-10-19T05:06:32;3.47;;;2.23;;
15818;SDS011;8010;53.986;12.106;2023-10-19T05:08:57;4.23;;;2.43;;
15818;SDS011;8010;53.986;12.106;2023-10-19T05:11:23;4.93;;;2.60;;
15818;SDS011;8010;53.986;12.106;2023-10-19T05:13:48;4.43;;;2.40;;
15818;SDS011;8010;53.986;12.106;2023-10-19T05:16:14;3.83;;;2.30;;
15818;SDS011;8010;53.986;12.106;2023-10-19T05:18:40;4.43;;;2.40;;
15818;SDS011;8010;53.986;12.106;2023-10-19T05:21:05;4.07;;;2.40;;
15818;SDS011;8010;53.986;12.106;2023-10-19T05:23:31;5.27;;;2.63;;
15818;SDS011;8010;53.986;12.106;2023-10-19T05:26:00;5.03;;;2.77;;
15818;SDS011;8010;53.986;12.106;2023-10-19T05:28:27;4.27;;;2.70;;
15818;SDS011;8010;53.986;12.106;2023-10-19T05:30:53;3.53;;;2.50;;
15818;SDS011;8010;53.986;12.106;2023-10-19T05:33:19;5.47;;;2.80;;
15818;SDS011;8010;53.986;12.106;2023-10-19T05:35:48;5.50;;;2.93;;
15818;SDS011;8010;53.986;12.106;2023-10-19T05:38:14;4.23;;;2.77;;
15818;SDS011;8010;53.986;12.106;2023-10-19T05:40:40;7.03;;;3.30;;
15818;SDS011;8010;53.986;12.106;2023-10-19T05:43:08;4.33;;;2.93;;
15818;SDS011;8010;53.986;12.106;2023-10-19T05:45:34;4.87;;;3.30;;
15818;SDS011;8010;53.986;12.106;2023-10-19T05:48:01;4.70;;;3.53;;
15818;SDS011;8010;53.986;12.106;2023-10-19T05:50:28;6.05;;;3.60;;
15818;SDS011;8010;53.986;12.106;2023-10-19T05:52:54;8.20;;;3.60;;
15818;SDS011;8010;53.986;12.106;2023-10-19T05:55:20;5.63;;;3.40;;
15818;SDS011;8010;53.986;12.106;2023-10-19T05:57:48;5.47;;;3.30;;
15818;SDS011;8010;53.986;12.106;2023-10-19T06:00:14;4.17;;;3.00;;
15818;SDS011;8010;53.986;12.106;2023-10-19T06:02:47;5.73;;;3.63;;
15818;SDS011;8010;53.986;12.106;2023-10-19T06:05:17;5.07;;;2.93;;
15818;SDS011;8010;53.986;12.106;2023-10-19T06:07:44;8.00;;;3.73;;
15818;SDS011;8010;53.986;12.106;2023-10-19T06:10:11;3.73;;;2.80;;
15818;SDS011;8010;53.986;12.106;2023-10-19T06:12:41;5.50;;;3.23;;
15818;SDS011;8010;53.986;12.106;2023-10-19T06:15:07;4.73;;;3.33;;
15818;SDS011;8010;53.986;12.106;2023-10-19T06:17:33;6.27;;;2.73;;
15818;SDS011;8010;53.986;12.106;2023-10-19T06:19:58;4.27;;;3.23;;
15818;SDS011;8010;53.986;12.106;2023-10-19T06:22:25;6.27;;;3.83;;
15818;SDS011;8010;53.986;12.106;2023-10-19T06:24:50;6.00;;;3.60;;
15818;SDS011;8010;53.986;12.106;2023-10-19T06:27:17;6.17;;;3.53;;
15818;SDS011;8010;53.986;12.106;2023-10-19T06:29:42;6.73;;;3.90;;
15818;SDS011;8010;53.986;12.106;2023-10-19T06:32:09;4.77;;;3.73;;
15818;SDS011;8010;53.986;12.106;2023-10-19T06:34:34;6.40;;;4.00;;
15818;SDS011;8010;53.986;12.106;2023-10-19T06:37:00;5.50;;;3.80;;
15818;SDS011;8010;53.986;12.106;2023-10-19T06:39:26;6.77;;;3.47;;
15818;SDS011;8010;53.986;12.106;2023-10-19T06:41:52;5.73;;;3.77;;
15818;SDS011;8010;53.986;12.106;2023-10-19T06:44:17;7.57;;;4.13;;
15818;SDS011;8010;53.986;12.106;2023-10-19T06:46:43;5.00;;;3.50;;
15818;SDS011;8010;53.986;12.106;2023-10-19T06:49:09;5.87;;;3.17;;
15818;SDS011;8010;53.986;12.106;2023-10-19T06:51:34;6.73;;;3.77;;
15818;SDS011;8010;53.986;12.106;2023-10-19T06:54:01;6.60;;;3.53;;
15818;SDS011;8010;53.986;12.106;2023-10-19T06:56:27;5.60;;;3.87;;
15818;SDS011;8010;53.986;12.106;2023-10-19T06:58:52;5.77;;;3.80;;
15818;SDS011;8010;53.986;12.106;2023-10-19T07:01:18;8.70;;;3.83;;
15818;SDS011;8010;53.986;12.106;2023-10-19T07:03:48;7.47;;;3.60;;
15818;SDS011;8010;53.986;12.106;2023-10-19T07:06:13;5.47;;;3.50;;
15818;SDS011;8010;53.986;12.106;2023-10-19T07:08:40;6.07;;;3.73;;
15818;SDS011;8010;53.986;12.106;2023-10-19T07:11:08;6.57;;;4.10;;
15818;SDS011;8010;53.986;12.106;2023-10-19T07:13:34;5.17;;;3.50;;
15818;SDS011;8010;53.986;12.106;2023-10-19T07:16:00;5.97;;;3.73;;
15818;SDS011;8010;53.986;12.106;2023-10-19T07:18:27;7.10;;;4.23;;
15818;SDS011;8010;53.986;12.106;2023-10-19T07:20:53;6.27;;;3.97;;
15818;SDS011;8010;53.986;12.106;2023-10-19T07:23:25;6.00;;;4.17;;
15818;SDS011;8010;53.986;12.106;2023-10-19T07:25:51;8.00;;;4.50;;
15818;SDS011;8010;53.986;12.106;2023-10-19T07:28:20;7.27;;;4.10;;
15818;SDS011;8010;53.986;12.106;2023-10-19T07:30:47;11.87;;;4.77;;
15818;SDS011;8010;53.986;12.106;2023-10-19T07:33:13;8.57;;;4.47;;
15818;SDS011;8010;53.986;12.106;2023-10-19T07:35:42;6.33;;;3.93;;
15818;SDS011;8010;53.986;12.106;2023-10-19T07:38:09;7.10;;;4.07;;
15818;SDS011;8010;53.986;12.106;2023-10-19T07:40:35;10.20;;;4.53;;
15818;SDS011;8010;53.986;12.106;2023-10-19T07:43:01;7.97;;;4.33;;
15818;SDS011;8010;53.986;12.106;2023-10-19T07:45:26;8.43;;;4.87;;
15818;SDS011;8010;53.986;12.106;2023-10-19T07:47:52;8.97;;;4.80;;
15818;SDS011;8010;53.986;12.106;2023-10-19T07:50:18;10.50;;;4.50;;
15818;SDS011;8010;53.986;12.106;2023-10-19T07:52:44;7.60;;;4.73;;
15818;SDS011;8010;53.986;12.106;2023-10-19T07:55:14;9.00;;;4.33;;
15818;SDS011;8010;53.986;12.106;2023-10-19T07:57:44;7.90;;;4.43;;
15818;SDS011;8010;53.986;12.106;2023-10-19T08:00:10;7.97;;;4.17;;
15818;SDS011;8010;53.986;12.106;2023-10-19T08:02:39;12.70;;;4.50;;
15818;SDS011;8010;53.986;12.106;2023-10-19T08:05:06;6.47;;;4.37;;
15818;SDS011;8010;53.986;12.106;2023-10-19T08:07:33;12.87;;;4.27;;
15818;SDS011;8010;53.986;12.106;2023-10-19T08:09:59;6.43;;;4.53;;
15818;SDS011;8010;53.986;12.106;2023-10-19T08:12:27;9.13;;;4.63;;
15818;SDS011;8010;53.986;12.106;2023-10-19T08:14:53;6.93;;;3.90;;
15818;SDS011;8010;53.986;12.106;2023-10-19T08:17:20;6.70;;;4.00;;
15818;SDS011;8010;53.986;12.106;2023-10-19T08:19:46;6.37;;;4.30;;
15818;SDS011;8010;53.986;12.106;2023-10-19T08:22:11;8.80;;;4.90;;
15818;SDS011;8010;53.986;12.106;2023-10-19T08:24:39;6.73;;;4.67;;
15818;SDS011;8010;53.986;12.106;2023-10-19T08:27:08;7.63;;;4.63;;
15818;SDS011;8010;53.986;12.106;2023-10-19T08:29:35;10.17;;;4.50;;
15818;SDS011;8010;53.986;12.106;2023-10-19T08:32:01;7.67;;;4.90;;
15818;SDS011;8010;53.986;12.106;2023-10-19T08:34:27;9.90;;;4.47;;
15818;SDS011;8010;53.986;12.106;2023-10-19T08:36:54;6.70;;;4.83;;
15818;SDS011;8010;53.986;12.106;2023-10-19T08:39:20;9.30;;;4.97;;
15818;SDS011;8010;53.986;12.106;2023-10-19T08:41:46;6.90;;;4.83;;
15818;SDS011;8010;53.986;12.106;2023-10-19T08:44:14;7.33;;;4.77;;
15818;SDS011;8010;53.986;12.106;2023-10-19T08:46:43;7.27;;;4.37;;
15818;SDS011;8010;53.986;12.106;2023-10-19T08:49:12;8.53;;;4.83;;
15818;SDS011;8010;53.986;12.106;2023-10-19T08:51:40;7.57;;;4.40;;
15818;SDS011;8010;53.986;12.106;2023-10-19T08:54:12;8.40;;;4.60;;
15818;SDS011;8010;53.986;12.106;2023-10-19T08:56:39;13.50;;;4.30;;
15818;SDS011;8010;53.986;12.106;2023-10-19T08:59:06;8.30;;;4.43;;
15818;SDS011;8010;53.986;12.106;2023-10-19T09:01:38;8.80;;;4.30;;
15818;SDS011;8010;53.986;12.106;2023-10-19T09:04:04;7.10;;;4.47;;
15818;SDS011;8010;53.986;12.106;2023-10-19T09:06:36;7.20;;;4.37;;
15818;SDS011;8010;53.986;12.106;2023-10-19T09:09:10;7.67;;;4.20;;
15818;SDS011;8010;53.986;12.106;2023-10-19T09:11:41;7.40;;;4.33;;
15818;SDS011;8010;53.986;12.106;2023-10-19T09:14:08;8.87;;;5.87;;
15818;SDS011;8010;53.986;12.106;2023-10-19T09:16:33;18.67;;;9.60;;
15818;SDS011;8010;53.986;12.106;2023-10-19T09:18:59;24.77;;;15.40;;
15818;SDS011;8010;53.986;12.106;2023-10-19T09:21:24;30.20;;;18.27;;
15818;SDS011;8010;53.986;12.106;2023-10-19T09:23:50;9.70;;;6.00;;
15818;SDS011;8010;53.986;12.106;2023-10-19T09:26:17;6.97;;;5.23;;
15818;SDS011;8010;53.986;12.106;2023-10-19T09:28:45;11.90;;;7.17;;
15818;SDS011;8010;53.986;12.106;2023-10-19T09:31:12;40.10;;;21.23;;
15818;SDS011;8010;53.986;12.106;2023-10-19T09:33:40;16.23;;;8.80;;
15818;SDS011;8010;53.986;12.106;2023-10-19T09:36:06;24.97;;;15.03;;
15818;SDS011;8010;53.986;12.106;2023-10-19T09:38:47;30.73;;;16.33;;
15818;SDS011;8010;53.986;12.106;2023-10-19T09:41:13;11.37;;;6.50;;
15818;SDS011;8010;53.986;12.106;2023-10-19T09:43:43;12.77;;;7.70;;
15818;SDS011;8010;53.986;12.106;2023-10-19T09:46:10;17.40;;;9.73;;
15818;SDS011;8010;53.986;12.106;2023-10-19T09:51:10;18.50;;;9.67;;
15818;SDS011;8010;53.986;12.106;2023-10-19T09:53:37;30.13;;;15.43;;
15818;SDS011;8010;53.986;12.106;2023-10-19T09:56:05;15.60;;;8.13;;
15818;SDS011;8010;53.986;12.106;2023-10-19T09:58:38;22.90;;;9.83;;
15818;SDS011;8010;53.986;12.106;2023-10-19T10:01:10;23.40;;;9.43;;
15818;SDS011;8010;53.986;12.106;2023-10-19T10:03:50;12.53;;;5.53;;
15818;SDS011;8010;53.986;12.106;2023-10-19T10:06:26;23.17;;;11.93;;
15818;SDS011;8010;53.986;12.106;2023-10-19T10:08:53;14.73;;;7.80;;
15818;SDS011;8010;53.986;12.106;2023-10-19T10:11:20;46.43;;;19.23;;
15818;SDS011;8010;53.986;12.106;2023-10-19T10:13:49;37.27;;;14.97;;
15818;SDS011;8010;53.986;12.106;2023-10-19T10:16:16;18.13;;;8.87;;
15818;SDS011;8010;53.986;12.106;2023-10-19T10:18:44;20.27;;;7.37;;
15818;SDS011;8010;53.986;12.106;2023-10-19T10:21:15;18.23;;;7.97;;
15818;SDS011;8010;53.986;12.106;2023-10-19T10:26:23;36.07;;;11.63;;
15818;SDS011;8010;53.986;12.106;2023-10-19T10:29:07;60.67;;;19.67;;
15818;SDS011;8010;53.986;12.106;2023-10-19T10:31:37;30.87;;;10.67;;
15818;SDS011;8010;53.986;12.106;2023-10-19T10:34:08;37.73;;;13.93;;
15818;SDS011;8010;53.986;12.106;2023-10-19T10:36:56;23.33;;;8.80;;
15818;SDS011;8010;53.986;12.106;2023-10-19T10:39:29;40.97;;;17.27;;
15818;SDS011;8010;53.986;12.106;2023-10-19T10:41:58;25.77;;;10.20;;
15818;SDS011;8010;53.986;12.106;2023-10-19T10:44:37;38.90;;;13.40;;
15818;SDS011;8010;53.986;12.106;2023-10-19T10:47:08;18.90;;;8.57;;
15818;SDS011;8010;53.986;12.106;2023-10-19T10:49:48;33.63;;;14.20;;
15818;SDS011;8010;53.986;12.106;2023-10-19T10:52:31;33.23;;;13.97;;
15818;SDS011;8010;53.986;12.106;2023-10-19T10:55:08;27.70;;;12.20;;
15818;SDS011;8010;53.986;12.106;2023-10-19T10:57:38;22.10;;;10.17;;
15818;SDS011;8010;53.986;12.106;2023-10-19T11:00:12;18.13;;;8.73;;
15818;SDS011;8010;53.986;12.106;2023-10-19T11:02:42;11.77;;;8.00;;
15818;SDS011;8010;53.986;12.106;2023-10-19T11:05:11;9.17;;;5.37;;
15818;SDS011;8010;53.986;12.106;2023-10-19T11:07:41;6.97;;;4.57;;
15818;SDS011;8010;53.986;12.106;2023-10-19T11:10:29;9.00;;;5.53;;
15818;SDS011;8010;53.986;12.106;2023-10-19T11:13:09;10.50;;;5.67;;
15818;SDS011;8010;53.986;12.106;2023-10-19T11:15:36;11.90;;;6.10;;
15818;SDS011;8010;53.986;12.106;2023-10-19T11:18:04;9.17;;;5.57;;
15818;SDS011;8010;53.986;12.106;2023-10-19T11:20:30;11.23;;;5.20;;
15818;SDS011;8010;53.986;12.106;2023-10-19T11:22:56;8.53;;;5.23;;
15818;SDS011;8010;53.986;12.106;2023-10-19T11:25:23;11.03;;;5.80;;
15818;SDS011;8010;53.986;12.106;2023-10-19T11:27:54;11.93;;;5.00;;
15818;SDS011;8010;53.986;12.106;2023-10-19T11:30:24;10.40;;;5.23;;
15818;SDS011;8010;53.986;12.106;2023-10-19T11:32:55;6.20;;;5.10;;
15818;SDS011;8010;53.986;12.106;2023-10-19T11:35:28;9.33;;;5.67;;
15818;SDS011;8010;53.986;12.106;2023-10-19T11:37:56;7.97;;;4.70;;
15818;SDS011;8010;53.986;12.106;2023-10-19T11:40:27;7.80;;;5.60;;
15818;SDS011;8010;53.986;12.106;2023-10-19T11:42:54;8.53;;;4.90;;
15818;SDS011;8010;53.986;12.106;2023-10-19T11:45:25;6.67;;;4.67;;
15818;SDS011;8010;53.986;12.106;2023-10-19T11:47:51;11.43;;;5.07;;
15818;SDS011;8010;53.986;12.106;2023-10-19T11:50:17;8.57;;;5.40;;
15818;SDS011;8010;53.986;12.106;2023-10-19T11:52:44;7.47;;;5.07;;
15818;SDS011;8010;53.986;12.106;2023-10-19T11:55:14;8.90;;;5.20;;
15818;SDS011;8010;53.986;12.106;2023-10-19T11:57:44;7.17;;;4.80;;
15818;SDS011;8010;53.986;12.106;2023-10-19T12:00:10;9.80;;;5.47;;
15818;SDS011;8010;53.986;12.106;2023-10-19T12:02:45;7.87;;;5.00;;
15818;SDS011;8010;53.986;12.106;2023-10-19T12:05:10;10.43;;;5.13;;
15818;SDS011;8010;53.986;12.106;2023-10-19T12:07:36;8.30;;;5.27;;
15818;SDS011;8010;53.986;12.106;2023-10-19T12:10:03;9.37;;;5.27;;
15818;SDS011;8010;53.986;12.106;2023-10-19T12:12:35;7.17;;;4.77;;
15818;SDS011;8010;53.986;12.106;2023-10-19T12:15:02;8.43;;;5.03;;
15818;SDS011;8010;53.986;12.106;2023-10-19T12:17:30;9.90;;;5.60;;
15818;SDS011;8010;53.986;12.106;2023-10-19T12:19:56;10.07;;;5.73;;
15818;SDS011;8010;53.986;12.106;2023-10-19T12:22:22;11.73;;;5.60;;
15818;SDS011;8010;53.986;12.106;2023-10-19T12:24:49;9.80;;;4.93;;
15818;SDS011;8010;53.986;12.106;2023-10-19T12:27:16;7.27;;;5.30;;
15818;SDS011;8010;53.986;12.106;2023-10-19T12:29:42;10.27;;;5.40;;
15818;SDS011;8010;53.986;12.106;2023-10-19T12:32:08;8.03;;;5.37;;
15818;SDS011;8010;53.986;12.106;2023-10-19T12:34:34;7.13;;;5.47;;
15818;SDS011;8010;53.986;12.106;2023-10-19T12:37:00;7.10;;;5.17;;
15818;SDS011;8010;53.986;12.106;2023-10-19T12:39:27;9.70;;;5.30;;
15818;SDS011;8010;53.986;12.106;2023-10-19T12:42:09;9.33;;;5.33;;
15818;SDS011;8010;53.986;12.106;2023-10-19T12:44:35;8.23;;;5.50;;
15818;SDS011;8010;53.986;12.106;2023-10-19T12:47:04;7.67;;;4.97;;
15818;SDS011;8010;53.986;12.106;2023-10-19T12:49:34;11.77;;;6.00;;
15818;SDS011;8010;53.986;12.106;2023-10-19T12:52:00;8.27;;;5.57;;
15818;SDS011;8010;53.986;12.106;2023-10-19T12:54:28;9.40;;;5.13;;
15818;SDS011;8010;53.986;12.106;2023-10-19T12:56:54;10.93;;;5.67;;
15818;SDS011;8010;53.986;12.106;2023-10-19T12:59:20;11.27;;;5.47;;
15818;SDS011;8010;53.986;12.106;2023-10-19T13:01:46;8.67;;;5.40;;
15818;SDS011;8010;53.986;12.106;2023-10-19T13:04:14;12.80;;;6.33;;
15818;SDS011;8010;53.986;12.106;2023-10-19T13:06:43;9.67;;;5.47;;
15818;SDS011;8010;53.986;12.106;2023-10-19T13:09:12;7.43;;;5.37;;
15818;SDS011;8010;53.986;12.106;2023-10-19T13:11:40;9.90;;;5.57;;
15818;SDS011;8010;53.986;12.106;2023-10-19T13:14:08;8.07;;;5.37;;
15818;SDS011;8010;53.986;12.106;2023-10-19T13:16:35;8.63;;;5.67;;
15818;SDS011;8010;53.986;12.106;2023-10-19T13:19:00;7.73;;;5.97;;
15818;SDS011;8010;53.986;12.106;2023-10-19T13:21:34;9.23;;;5.27;;
15818;SDS011;8010;53.986;12.106;2023-10-19T13:23:59;10.00;;;5.30;;
15818;SDS011;8010;53.986;12.106;2023-10-19T13:26:26;8.57;;;4.60;;
15818;SDS011;8010;53.986;12.106;2023-10-19T13:28:53;11.37;;;5.57;;
15818;SDS011;8010;53.986;12.106;2023-10-19T13:31:20;8.20;;;5.47;;
15818;SDS011;8010;53.986;12.106;2023-10-19T13:33:47;8.03;;;5.00;;
15818;SDS011;8010;53.986;12.106;2023-10-19T13:36:12;9.73;;;5.97;;
15818;SDS011;8010;53.986;12.106;2023-10-19T13:38:38;8.70;;;5.60;;
15818;SDS011;8010;53.986;12.106;2023-10-19T13:41:04;8.20;;;5.07;;
15818;SDS011;8010;53.986;12.106;2023-10-19T13:43:34;6.87;;;4.80;;
15818;SDS011;8010;53.986;12.106;2023-10-19T13:46:00;8.77;;;5.53;;
15818;SDS011;8010;53.986;12.106;2023-10-19T13:48:27;8.07;;;5.33;;
15818;SDS011;8010;53.986;12.106;2023-10-19T13:50:52;11.13;;;5.13;;
15818;SDS011;8010;53.986;12.106;2023-10-19T13:53:25;8.93;;;5.30;;
15818;SDS011;8010;53.986;12.106;2023-10-19T13:55:53;9.30;;;5.70;;
15818;SDS011;8010;53.986;12.106;2023-10-19T13:58:19;11.33;;;5.37;;
15818;SDS011;8010;53.986;12.106;2023-10-19T14:00:44;7.57;;;5.00;;
15818;SDS011;8010;53.986;12.106;2023-10-19T14:03:11;9.23;;;5.47;;
15818;SDS011;8010;53.986;12.106;2023-10-19T14:05:44;7.37;;;5.13;;
15818;SDS011;8010;53.986;12.106;2023-10-19T14:08:13;10.40;;;5.87;;
15818;SDS011;8010;53.986;12.106;2023-10-19T14:10:42;8.47;;;5.50;;
15818;SDS011;8010;53.986;12.106;2023-10-19T14:13:08;11.30;;;5.13;;
15818;SDS011;8010;53.986;12.106;2023-10-19T14:15:36;10.00;;;5.43;;
15818;SDS011;8010;53.986;12.106;2023-10-19T14:18:02;8.30;;;5.27;;
15818;SDS011;8010;53.986;12.106;2023-10-19T14:20:29;11.53;;;5.83;;
15818;SDS011;8010;53.986;12.106;2023-10-19T14:22:56;9.37;;;5.40;;
15818;SDS011;8010;53.986;12.106;2023-10-19T14:25:22;8.83;;;5.13;;
15818;SDS011;8010;53.986;12.106;2023-10-19T14:27:51;9.50;;;5.67;;
15818;SDS011;8010;53.986;12.106;2023-10-19T14:30:24;8.50;;;5.37;;
15818;SDS011;8010;53.986;12.106;2023-10-19T14:32:50;7.67;;;5.27;;
15818;SDS011;8010;53.986;12.106;2023-10-19T14:35:16;10.73;;;5.73;;
15818;SDS011;8010;53.986;12.106;2023-10-19T14:37:47;7.57;;;5.30;;
15818;SDS011;8010;53.986;12.106;2023-10-19T14:40:17;10.13;;;5.80;;
15818;SDS011;8010;53.986;12.106;2023-10-19T14:42:48;8.10;;;5.67;;
15818;SDS011;8010;53.986;12.106;2023-10-19T14:45:18;10.83;;;6.23;;
15818;SDS011;8010;53.986;12.106;2023-10-19T14:47:49;8.20;;;5.27;;
15818;SDS011;8010;53.986;12.106;2023-10-19T14:50:16;12.70;;;6.50;;
15818;SDS011;8010;53.986;12.106;2023-10-19T14:52:45;9.17;;;6.73;;
15818;SDS011;8010;53.986;12.106;2023-10-19T14:55:12;12.37;;;5.83;;